Terminal Aerodrome Forecast
Issued by NWS

Home | Current Version | Previous Version | Text Only | Print | Product List | Glossary On
Versions: 1 2 3 4 5 6 7 8 9 10 11 12 13
000
FTUS45 KGJT 172006 AAA
TAFTEX
TAF AMD
KTEX 172006Z 1720/1818 22015G28KT P6SM VCSH BKN045 BKN060 OVC090
     FM172200 23021G42KT 6SM -SN SCT020 OVC035
     FM180200 28019G44KT 1/2SM SN BLSN SCT010 OVC030
     FM180500 31013G27KT P6SM VCSH SCT015 BKN025
     FM180800 01007KT P6SM FEW030 SCT110=

USA.gov is the U.S. government's official web portal to all federal, state and local government web resources and services.